sensor_id;sensor_type;location;lat;lon;timestamp;pressure;altitude;pressure_sealevel;temperature;humidity
77333;BME280;66408;51.326;12.070;2023-06-04T00:01:09;101169.72;;;11.34;52.12
77333;BME280;66408;51.326;12.070;2023-06-04T00:03:42;101170.06;;;11.28;52.72
77333;BME280;66408;51.326;12.070;2023-06-04T00:06:09;101179.38;;;11.22;53.05
77333;BME280;66408;51.326;12.070;2023-06-04T00:08:36;101178.59;;;11.16;52.73
77333;BME280;66408;51.326;12.070;2023-06-04T00:11:02;101171.59;;;11.10;52.93
77333;BME280;66408;51.326;12.070;2023-06-04T00:13:29;101175.44;;;11.09;53.27
77333;BME280;66408;51.326;12.070;2023-06-04T00:15:56;101168.63;;;11.06;52.88
77333;BME280;66408;51.326;12.070;2023-06-04T00:18:22;101167.56;;;11.02;53.17
77333;BME280;66408;51.326;12.070;2023-06-04T00:20:49;101159.75;;;10.96;52.96
77333;BME280;66408;51.326;12.070;2023-06-04T00:23:16;101164.19;;;10.87;53.17
77333;BME280;66408;51.326;12.070;2023-06-04T00:25:42;101168.88;;;10.76;53.77
77333;BME280;66408;51.326;12.070;2023-06-04T00:28:09;101166.97;;;10.76;54.16
77333;BME280;66408;51.326;12.070;2023-06-04T00:30:35;101167.56;;;10.73;54.11
77333;BME280;66408;51.326;12.070;2023-06-04T00:33:02;101158.34;;;10.69;54.09
77333;BME280;66408;51.326;12.070;2023-06-04T00:35:29;101162.69;;;10.70;54.19
77333;BME280;66408;51.326;12.070;2023-06-04T00:37:56;101153.75;;;10.65;54.09
77333;BME280;66408;51.326;12.070;2023-06-04T00:40:22;101157.88;;;10.57;53.99
77333;BME280;66408;51.326;12.070;2023-06-04T00:42:49;101153.56;;;10.51;54.25
77333;BME280;66408;51.326;12.070;2023-06-04T00:45:16;101156.28;;;10.51;54.20
77333;BME280;66408;51.326;12.070;2023-06-04T00:47:45;101164.50;;;10.46;54.26
77333;BME280;66408;51.326;12.070;2023-06-04T00:50:11;101168.59;;;10.43;54.68
77333;BME280;66408;51.326;12.070;2023-06-04T00:52:38;101171.03;;;10.40;54.87
77333;BME280;66408;51.326;12.070;2023-06-04T00:55:05;101151.53;;;10.33;54.78
77333;BME280;66408;51.326;12.070;2023-06-04T00:57:32;101158.59;;;10.29;54.82
77333;BME280;66408;51.326;12.070;2023-06-04T00:59:59;101164.91;;;10.24;54.52
77333;BME280;66408;51.326;12.070;2023-06-04T01:02:26;101158.69;;;10.14;54.67
77333;BME280;66408;51.326;12.070;2023-06-04T01:07:45;101156.25;;;10.12;54.85
77333;BME280;66408;51.326;12.070;2023-06-04T01:10:13;101163.06;;;10.09;55.13
77333;BME280;66408;51.326;12.070;2023-06-04T01:12:43;101161.16;;;10.05;55.35
77333;BME280;66408;51.326;12.070;2023-06-04T01:15:10;101158.16;;;10.06;55.27
77333;BME280;66408;51.326;12.070;2023-06-04T01:17:42;101161.44;;;10.03;55.29
77333;BME280;66408;51.326;12.070;2023-06-04T01:20:19;101161.97;;;10.05;55.60
77333;BME280;66408;51.326;12.070;2023-06-04T01:25:54;101161.72;;;10.02;55.22
77333;BME280;66408;51.326;12.070;2023-06-04T01:28:20;101162.84;;;9.96;55.29
77333;BME280;66408;51.326;12.070;2023-06-04T01:30:47;101154.47;;;9.87;55.87
77333;BME280;66408;51.326;12.070;2023-06-04T01:33:16;101161.81;;;9.82;56.24
77333;BME280;66408;51.326;12.070;2023-06-04T01:35:43;101152.31;;;9.79;56.32
77333;BME280;66408;51.326;12.070;2023-06-04T01:38:10;101157.22;;;9.77;56.58
77333;BME280;66408;51.326;12.070;2023-06-04T01:40:37;101160.78;;;9.72;57.08
77333;BME280;66408;51.326;12.070;2023-06-04T01:43:04;101164.84;;;9.70;57.15
77333;BME280;66408;51.326;12.070;2023-06-04T01:45:31;101163.78;;;9.66;56.96
77333;BME280;66408;51.326;12.070;2023-06-04T01:48:00;101161.09;;;9.56;56.89
77333;BME280;66408;51.326;12.070;2023-06-04T01:50:27;101160.84;;;9.47;56.79
77333;BME280;66408;51.326;12.070;2023-06-04T01:52:54;101161.66;;;9.43;57.23
77333;BME280;66408;51.326;12.070;2023-06-04T01:55:20;101170.91;;;9.42;57.48
77333;BME280;66408;51.326;12.070;2023-06-04T01:57:47;101163.84;;;9.41;57.77
77333;BME280;66408;51.326;12.070;2023-06-04T02:00:14;101164.16;;;9.39;57.88
77333;BME280;66408;51.326;12.070;2023-06-04T02:02:42;101173.88;;;9.40;57.76
77333;BME280;66408;51.326;12.070;2023-06-04T02:05:10;101166.59;;;9.35;57.80
77333;BME280;66408;51.326;12.070;2023-06-04T02:07:38;101173.63;;;9.31;57.57
77333;BME280;66408;51.326;12.070;2023-06-04T02:10:07;101164.16;;;9.24;57.91
77333;BME280;66408;51.326;12.070;2023-06-04T02:12:39;101178.81;;;9.18;58.22
77333;BME280;66408;51.326;12.070;2023-06-04T02:15:09;101175.84;;;9.14;58.78
77333;BME280;66408;51.326;12.070;2023-06-04T02:17:36;101183.72;;;9.11;58.34
77333;BME280;66408;51.326;12.070;2023-06-04T02:20:07;101178.84;;;9.13;58.09
77333;BME280;66408;51.326;12.070;2023-06-04T02:22:36;101182.88;;;9.15;57.90
77333;BME280;66408;51.326;12.070;2023-06-04T02:25:04;101180.72;;;9.17;57.85
77333;BME280;66408;51.326;12.070;2023-06-04T02:27:31;101174.19;;;9.18;57.62
77333;BME280;66408;51.326;12.070;2023-06-04T02:29:57;101180.44;;;9.19;57.84
77333;BME280;66408;51.326;12.070;2023-06-04T02:32:24;101180.75;;;9.12;57.82
77333;BME280;66408;51.326;12.070;2023-06-04T02:34:51;101180.75;;;9.12;58.21
77333;BME280;66408;51.326;12.070;2023-06-04T02:37:18;101179.66;;;9.08;58.34
77333;BME280;66408;51.326;12.070;2023-06-04T02:39:44;101178.28;;;9.06;57.97
77333;BME280;66408;51.326;12.070;2023-06-04T02:42:11;101172.63;;;9.02;58.69
77333;BME280;66408;51.326;12.070;2023-06-04T02:44:38;101178.81;;;9.02;58.49
77333;BME280;66408;51.326;12.070;2023-06-04T02:47:05;101181.28;;;8.99;58.75
77333;BME280;66408;51.326;12.070;2023-06-04T02:49:31;101180.19;;;8.95;58.89
77333;BME280;66408;51.326;12.070;2023-06-04T02:51:58;101181.81;;;8.91;58.71
77333;BME280;66408;51.326;12.070;2023-06-04T02:54:25;101182.94;;;8.90;59.19
77333;BME280;66408;51.326;12.070;2023-06-04T02:56:51;101185.06;;;8.93;58.92
77333;BME280;66408;51.326;12.070;2023-06-04T02:59:18;101176.69;;;8.89;58.60
77333;BME280;66408;51.326;12.070;2023-06-04T03:01:45;101182.66;;;8.86;59.54
77333;BME280;66408;51.326;12.070;2023-06-04T03:04:12;101184.81;;;8.84;59.35
77333;BME280;66408;51.326;12.070;2023-06-04T03:06:42;101189.16;;;8.85;59.38
77333;BME280;66408;51.326;12.070;2023-06-04T03:09:13;101192.13;;;8.84;59.06
77333;BME280;66408;51.326;12.070;2023-06-04T03:11:39;101192.13;;;8.79;59.20
77333;BME280;66408;51.326;12.070;2023-06-04T03:14:06;101187.50;;;8.79;59.71
77333;BME280;66408;51.326;12.070;2023-06-04T03:16:33;101199.44;;;8.78;59.05
77333;BME280;66408;51.326;12.070;2023-06-04T03:18:59;101195.13;;;8.77;59.23
77333;BME280;66408;51.326;12.070;2023-06-04T03:21:26;101201.59;;;8.71;59.06
77333;BME280;66408;51.326;12.070;2023-06-04T03:23:55;101202.41;;;8.61;59.19
77333;BME280;66408;51.326;12.070;2023-06-04T03:26:22;101206.75;;;8.62;59.67
77333;BME280;66408;51.326;12.070;2023-06-04T03:28:48;101205.94;;;8.67;60.34
77333;BME280;66408;51.326;12.070;2023-06-04T03:31:15;101197.28;;;8.70;60.21
77333;BME280;66408;51.326;12.070;2023-06-04T03:33:42;101205.13;;;8.72;60.74
77333;BME280;66408;51.326;12.070;2023-06-04T03:36:08;101199.69;;;8.67;59.99
77333;BME280;66408;51.326;12.070;2023-06-04T03:38:35;101206.75;;;8.68;60.23
77333;BME280;66408;51.326;12.070;2023-06-04T03:41:02;101203.50;;;8.71;60.29
77333;BME280;66408;51.326;12.070;2023-06-04T03:43:29;101205.13;;;8.72;60.47
77333;BME280;66408;51.326;12.070;2023-06-04T03:45:55;101205.13;;;8.72;60.10
77333;BME280;66408;51.326;12.070;2023-06-04T03:48:22;101208.41;;;8.74;60.16
77333;BME280;66408;51.326;12.070;2023-06-04T03:50:48;101207.06;;;8.76;60.57
77333;BME280;66408;51.326;12.070;2023-06-04T03:53:17;101207.03;;;8.81;60.72
77333;BME280;66408;51.326;12.070;2023-06-04T03:55:43;101204.31;;;8.81;60.42
77333;BME280;66408;51.326;12.070;2023-06-04T03:58:10;101210.56;;;8.82;60.44
77333;BME280;66408;51.326;12.070;2023-06-04T04:00:38;101207.06;;;8.76;60.00
77333;BME280;66408;51.326;12.070;2023-06-04T04:03:04;101215.44;;;8.80;60.40
77333;BME280;66408;51.326;12.070;2023-06-04T04:05:34;101219.78;;;8.76;60.65
77333;BME280;66408;51.326;12.070;2023-06-04T04:08:02;101212.22;;;8.78;60.31
77333;BME280;66408;51.326;12.070;2023-06-04T04:10:29;101212.47;;;8.81;60.71
77333;BME280;66408;51.326;12.070;2023-06-04T04:12:56;101217.06;;;8.91;60.64
77333;BME280;66408;51.326;12.070;2023-06-04T04:15:24;101211.38;;;8.97;61.04
77333;BME280;66408;51.326;12.070;2023-06-04T04:17:50;101218.72;;;9.02;60.76
77333;BME280;66408;51.326;12.070;2023-06-04T04:20:17;101217.34;;;9.10;60.62
77333;BME280;66408;51.326;12.070;2023-06-04T04:22:44;101214.91;;;9.13;60.46
77333;BME280;66408;51.326;12.070;2023-06-04T04:25:11;101220.34;;;9.13;60.15
77333;BME280;66408;51.326;12.070;2023-06-04T04:27:37;101218.72;;;9.22;60.04
77333;BME280;66408;51.326;12.070;2023-06-04T04:30:07;101222.75;;;9.30;60.57
77333;BME280;66408;51.326;12.070;2023-06-04T04:32:34;101215.16;;;9.37;60.85
77333;BME280;66408;51.326;12.070;2023-06-04T04:35:00;101211.06;;;9.45;60.73
77333;BME280;66408;51.326;12.070;2023-06-04T04:37:27;101219.19;;;9.55;60.90
77333;BME280;66408;51.326;12.070;2023-06-04T04:39:53;101221.38;;;9.63;60.82
77333;BME280;66408;51.326;12.070;2023-06-04T04:42:20;101219.97;;;9.70;61.59
77333;BME280;66408;51.326;12.070;2023-06-04T04:44:47;101220.47;;;9.78;61.75
77333;BME280;66408;51.326;12.070;2023-06-04T04:47:15;101225.91;;;9.83;62.44
77333;BME280;66408;51.326;12.070;2023-06-04T04:49:42;101227.78;;;9.92;62.89
77333;BME280;66408;51.326;12.070;2023-06-04T04:52:09;101225.56;;;10.04;62.37
77333;BME280;66408;51.326;12.070;2023-06-04T04:54:36;101225.00;;;10.13;62.85
77333;BME280;66408;51.326;12.070;2023-06-04T04:57:02;101234.50;;;10.25;62.43
77333;BME280;66408;51.326;12.070;2023-06-04T04:59:39;101229.22;;;10.39;62.55
77333;BME280;66408;51.326;12.070;2023-06-04T05:02:06;101232.41;;;10.51;62.73
77333;BME280;66408;51.326;12.070;2023-06-04T05:04:33;101231.78;;;10.64;62.71
77333;BME280;66408;51.326;12.070;2023-06-04T05:06:59;101228.16;;;10.79;62.20
77333;BME280;66408;51.326;12.070;2023-06-04T05:09:26;101222.09;;;10.92;61.46
77333;BME280;66408;51.326;12.070;2023-06-04T05:11:53;101233.13;;;11.06;60.53
77333;BME280;66408;51.326;12.070;2023-06-04T05:14:19;101226.75;;;11.21;60.12
77333;BME280;66408;51.326;12.070;2023-06-04T05:16:46;101235.63;;;11.36;59.42
77333;BME280;66408;51.326;12.070;2023-06-04T05:19:18;101231.91;;;11.51;58.05
77333;BME280;66408;51.326;12.070;2023-06-04T05:21:45;101234.72;;;11.70;56.62
77333;BME280;66408;51.326;12.070;2023-06-04T05:24:12;101230.53;;;11.82;55.96
77333;BME280;66408;51.326;12.070;2023-06-04T05:26:38;101234.53;;;11.90;55.30
77333;BME280;66408;51.326;12.070;2023-06-04T05:29:06;101228.38;;;12.03;54.62
77333;BME280;66408;51.326;12.070;2023-06-04T05:31:33;101226.81;;;12.21;53.97
77333;BME280;66408;51.326;12.070;2023-06-04T05:34:02;101229.63;;;12.35;54.64
77333;BME280;66408;51.326;12.070;2023-06-04T05:36:31;101229.47;;;12.45;54.60
77333;BME280;66408;51.326;12.070;2023-06-04T05:38:57;101225.72;;;12.59;53.50
77333;BME280;66408;51.326;12.070;2023-06-04T05:41:26;101227.41;;;12.74;54.14
77333;BME280;66408;51.326;12.070;2023-06-04T05:43:54;101231.09;;;12.83;53.63
77333;BME280;66408;51.326;12.070;2023-06-04T05:46:21;101237.63;;;13.01;52.73
77333;BME280;66408;51.326;12.070;2023-06-04T05:48:48;101230.41;;;13.10;52.26
77333;BME280;66408;51.326;12.070;2023-06-04T05:51:15;101233.19;;;13.24;51.45
77333;BME280;66408;51.326;12.070;2023-06-04T05:53:41;101222.59;;;13.36;52.68
77333;BME280;66408;51.326;12.070;2023-06-04T05:56:08;101228.59;;;13.52;50.92
77333;BME280;66408;51.326;12.070;2023-06-04T05:58:35;101231.75;;;13.73;49.91
77333;BME280;66408;51.326;12.070;2023-06-04T06:01:02;101227.63;;;13.89;49.79
77333;BME280;66408;51.326;12.070;2023-06-04T06:03:29;101235.63;;;14.13;49.97
77333;BME280;66408;51.326;12.070;2023-06-04T06:05:57;101238.53;;;14.30;49.47
77333;BME280;66408;51.326;12.070;2023-06-04T06:08:24;101242.28;;;14.48;49.88
77333;BME280;66408;51.326;12.070;2023-06-04T06:10:51;101240.31;;;14.62;48.21
77333;BME280;66408;51.326;12.070;2023-06-04T06:13:18;101245.66;;;14.81;47.51
77333;BME280;66408;51.326;12.070;2023-06-04T06:15:46;101246.09;;;14.96;47.10
77333;BME280;66408;51.326;12.070;2023-06-04T06:18:13;101248.97;;;15.14;46.95
77333;BME280;66408;51.326;12.070;2023-06-04T06:20:39;101252.94;;;15.30;46.63
77333;BME280;66408;51.326;12.070;2023-06-04T06:23:08;101249.31;;;15.43;45.12
77333;BME280;66408;51.326;12.070;2023-06-04T06:25:34;101256.59;;;15.70;45.02
77333;BME280;66408;51.326;12.070;2023-06-04T06:28:01;101254.09;;;15.91;43.17
77333;BME280;66408;51.326;12.070;2023-06-04T06:30:28;101258.56;;;16.17;43.82
77333;BME280;66408;51.326;12.070;2023-06-04T06:32:54;101254.91;;;16.39;41.72
77333;BME280;66408;51.326;12.070;2023-06-04T06:35:22;101262.56;;;16.77;41.24
77333;BME280;66408;51.326;12.070;2023-06-04T06:37:48;101263.19;;;17.08;40.53
77333;BME280;66408;51.326;12.070;2023-06-04T06:40:15;101255.53;;;17.48;40.02
77333;BME280;66408;51.326;12.070;2023-06-04T06:42:42;101267.91;;;17.89;38.92
77333;BME280;66408;51.326;12.070;2023-06-04T06:45:09;101256.69;;;18.03;37.93
77333;BME280;66408;51.326;12.070;2023-06-04T06:47:35;101253.75;;;18.37;38.49
77333;BME280;66408;51.326;12.070;2023-06-04T06:50:02;101259.44;;;18.61;38.04
77333;BME280;66408;51.326;12.070;2023-06-04T06:52:29;101265.75;;;18.83;38.61
77333;BME280;66408;51.326;12.070;2023-06-04T06:55:00;101266.91;;;19.02;37.65
77333;BME280;66408;51.326;12.070;2023-06-04T06:57:26;101272.59;;;19.18;37.94
77333;BME280;66408;51.326;12.070;2023-06-04T06:59:53;101266.31;;;19.51;38.17
77333;BME280;66408;51.326;12.070;2023-06-04T07:02:20;101258.06;;;19.75;35.82
77333;BME280;66408;51.326;12.070;2023-06-04T07:04:48;101259.47;;;19.93;36.87
77333;BME280;66408;51.326;12.070;2023-06-04T07:07:15;101265.00;;;20.18;35.89
77333;BME280;66408;51.326;12.070;2023-06-04T07:09:44;101266.13;;;20.29;36.72
77333;BME280;66408;51.326;12.070;2023-06-04T07:12:10;101257.50;;;20.30;34.41
77333;BME280;66408;51.326;12.070;2023-06-04T07:14:37;101259.81;;;20.53;34.30
77333;BME280;66408;51.326;12.070;2023-06-04T07:17:04;101262.94;;;20.51;34.57
77333;BME280;66408;51.326;12.070;2023-06-04T07:19:31;101272.38;;;20.50;34.04
77333;BME280;66408;51.326;12.070;2023-06-04T07:21:57;101267.19;;;20.61;33.40
77333;BME280;66408;51.326;12.070;2023-06-04T07:24:24;101263.56;;;20.85;33.42
77333;BME280;66408;51.326;12.070;2023-06-04T07:26:50;101265.13;;;20.98;33.87
77333;BME280;66408;51.326;12.070;2023-06-04T07:29:17;101264.81;;;21.15;33.88
77333;BME280;66408;51.326;12.070;2023-06-04T07:31:44;101274.56;;;21.37;32.48
77333;BME280;66408;51.326;12.070;2023-06-04T07:34:11;101268.75;;;21.42;31.71
77333;BME280;66408;51.326;12.070;2023-06-04T07:36:38;101271.81;;;21.52;31.41
77333;BME280;66408;51.326;12.070;2023-06-04T07:39:04;101276.28;;;21.57;31.42
77333;BME280;66408;51.326;12.070;2023-06-04T07:41:31;101272.31;;;21.42;30.67
77333;BME280;66408;51.326;12.070;2023-06-04T07:43:57;101274.78;;;21.60;31.31
77333;BME280;66408;51.326;12.070;2023-06-04T07:46:24;101275.44;;;21.84;31.47
77333;BME280;66408;51.326;12.070;2023-06-04T07:48:51;101274.66;;;22.00;30.54
77333;BME280;66408;51.326;12.070;2023-06-04T07:51:17;101274.72;;;22.19;30.10
77333;BME280;66408;51.326;12.070;2023-06-04T07:53:46;101277.69;;;22.10;28.97
77333;BME280;66408;51.326;12.070;2023-06-04T07:56:12;101266.50;;;22.23;29.28
77333;BME280;66408;51.326;12.070;2023-06-04T07:58:39;101270.13;;;22.27;28.83
77333;BME280;66408;51.326;12.070;2023-06-04T08:01:05;101273.91;;;22.18;28.86
77333;BME280;66408;51.326;12.070;2023-06-04T08:03:33;101262.47;;;22.20;28.96
77333;BME280;66408;51.326;12.070;2023-06-04T08:06:00;101266.94;;;22.25;28.52
77333;BME280;66408;51.326;12.070;2023-06-04T08:08:30;101265.75;;;22.26;28.03
77333;BME280;66408;51.326;12.070;2023-06-04T08:10:57;101271.75;;;22.28;27.82
77333;BME280;66408;51.326;12.070;2023-06-04T08:13:24;101262.28;;;22.29;27.91
77333;BME280;66408;51.326;12.070;2023-06-04T08:15:51;101260.78;;;22.50;27.38
77333;BME280;66408;51.326;12.070;2023-06-04T08:18:17;101258.81;;;22.51;27.07
77333;BME280;66408;51.326;12.070;2023-06-04T08:20:44;101257.13;;;22.62;27.56
77333;BME280;66408;51.326;12.070;2023-06-04T08:23:11;101251.50;;;22.58;26.50
77333;BME280;66408;51.326;12.070;2023-06-04T08:25:37;101253.47;;;22.58;26.56
77333;BME280;66408;51.326;12.070;2023-06-04T08:28:04;101250.38;;;22.63;25.78
77333;BME280;66408;51.326;12.070;2023-06-04T08:30:30;101252.69;;;22.77;25.85
77333;BME280;66408;51.326;12.070;2023-06-04T08:32:57;101252.63;;;22.92;25.72
77333;BME280;66408;51.326;12.070;2023-06-04T08:35:24;101252.56;;;23.08;25.63
77333;BME280;66408;51.326;12.070;2023-06-04T08:37:50;101253.41;;;23.12;24.98
77333;BME280;66408;51.326;12.070;2023-06-04T08:40:17;101242.72;;;23.11;25.21
77333;BME280;66408;51.326;12.070;2023-06-04T08:42:44;101249.47;;;23.13;25.58
77333;BME280;66408;51.326;12.070;2023-06-04T08:45:12;101251.13;;;23.37;24.73
77333;BME280;66408;51.326;12.070;2023-06-04T08:47:44;101249.78;;;23.70;23.75
77333;BME280;66408;51.326;12.070;2023-06-04T08:50:12;101247.81;;;23.93;23.53
77333;BME280;66408;51.326;12.070;2023-06-04T08:52:39;101258.38;;;23.84;22.72
77333;BME280;66408;51.326;12.070;2023-06-04T08:55:08;101258.84;;;23.67;23.30
77333;BME280;66408;51.326;12.070;2023-06-04T08:57:39;101254.41;;;23.85;23.56
77333;BME280;66408;51.326;12.070;2023-06-04T09:00:07;101254.84;;;24.10;22.41
77333;BME280;66408;51.326;12.070;2023-06-04T09:02:38;101252.03;;;24.32;22.47
77333;BME280;66408;51.326;12.070;2023-06-04T09:05:05;101264.03;;;24.66;22.71
77333;BME280;66408;51.326;12.070;2023-06-04T09:07:38;101250.19;;;24.74;21.74
77333;BME280;66408;51.326;12.070;2023-06-04T09:10:07;101256.06;;;24.65;21.75
77333;BME280;66408;51.326;12.070;2023-06-04T09:12:42;101263.97;;;24.63;22.11
77333;BME280;66408;51.326;12.070;2023-06-04T09:15:10;101257.47;;;24.52;21.67
77333;BME280;66408;51.326;12.070;2023-06-04T09:17:37;101257.16;;;24.57;21.40
77333;BME280;66408;51.326;12.070;2023-06-04T09:20:05;101268.63;;;24.82;20.86
77333;BME280;66408;51.326;12.070;2023-06-04T09:22:36;101255.34;;;25.35;20.90
77333;BME280;66408;51.326;12.070;2023-06-04T09:25:03;101261.13;;;25.93;20.15
77333;BME280;66408;51.326;12.070;2023-06-04T09:27:38;101256.19;;;25.76;20.23
77333;BME280;66408;51.326;12.070;2023-06-04T09:30:06;101257.16;;;25.94;20.60
77333;BME280;66408;51.326;12.070;2023-06-04T09:32:34;101260.44;;;26.10;20.35
77333;BME280;66408;51.326;12.070;2023-06-04T09:35:09;101253.56;;;26.45;19.49
77333;BME280;66408;51.326;12.070;2023-06-04T09:37:39;101250.41;;;26.54;19.59
77333;BME280;66408;51.326;12.070;2023-06-04T09:40:07;101247.09;;;26.34;19.46
77333;BME280;66408;51.326;12.070;2023-06-04T09:42:45;101249.13;;;25.89;19.97
77333;BME280;66408;51.326;12.070;2023-06-04T09:45:12;101255.16;;;25.95;19.15
77333;BME280;66408;51.326;12.070;2023-06-04T09:47:42;101251.78;;;25.75;19.05
77333;BME280;66408;51.326;12.070;2023-06-04T09:50:12;101234.47;;;25.96;19.97
77333;BME280;66408;51.326;12.070;2023-06-04T09:52:38;101245.91;;;26.31;19.78
77333;BME280;66408;51.326;12.070;2023-06-04T09:55:16;101240.22;;;26.21;18.70
77333;BME280;66408;51.326;12.070;2023-06-04T09:57:46;101249.59;;;26.50;19.26
77333;BME280;66408;51.326;12.070;2023-06-04T10:00:22;101247.34;;;26.76;19.59
77333;BME280;66408;51.326;12.070;2023-06-04T10:02:51;101247.31;;;26.69;18.39
77333;BME280;66408;51.326;12.070;2023-06-04T10:05:22;101240.59;;;26.88;18.75
77333;BME280;66408;51.326;12.070;2023-06-04T10:07:51;101244.72;;;27.12;18.14
77333;BME280;66408;51.326;12.070;2023-06-04T10:10:20;101246.00;;;27.43;17.63
77333;BME280;66408;51.326;12.070;2023-06-04T10:12:52;101248.84;;;27.89;17.31
77333;BME280;66408;51.326;12.070;2023-06-04T10:15:21;101241.25;;;28.07;17.19
77333;BME280;66408;51.326;12.070;2023-06-04T10:17:48;101235.25;;;27.95;16.50
77333;BME280;66408;51.326;12.070;2023-06-04T10:20:16;101240.47;;;28.24;16.48
77333;BME280;66408;51.326;12.070;2023-06-04T10:22:43;101232.91;;;28.18;15.89
77333;BME280;66408;51.326;12.070;2023-06-04T10:25:10;101228.88;;;27.98;16.21
77333;BME280;66408;51.326;12.070;2023-06-04T10:27:37;101232.06;;;28.14;16.28
77333;BME280;66408;51.326;12.070;2023-06-04T10:30:04;101230.44;;;28.34;16.35
77333;BME280;66408;51.326;12.070;2023-06-04T10:32:31;101226.47;;;28.21;16.83
77333;BME280;66408;51.326;12.070;2023-06-04T10:34:58;101236.44;;;28.33;17.49
77333;BME280;66408;51.326;12.070;2023-06-04T10:37:26;101233.66;;;28.22;17.92
77333;BME280;66408;51.326;12.070;2023-06-04T10:39:54;101236.06;;;28.31;17.68
77333;BME280;66408;51.326;12.070;2023-06-04T10:42:21;101230.84;;;28.43;17.02
77333;BME280;66408;51.326;12.070;2023-06-04T10:44:50;101231.97;;;28.64;17.70
77333;BME280;66408;51.326;12.070;2023-06-04T10:47:38;101239.97;;;28.65;16.94
77333;BME280;66408;51.326;12.070;2023-06-04T10:50:12;101223.91;;;28.87;17.03
77333;BME280;66408;51.326;12.070;2023-06-04T10:52:51;101223.53;;;28.74;15.85
77333;BME280;66408;51.326;12.070;2023-06-04T10:55:18;101222.09;;;29.25;15.90
77333;BME280;66408;51.326;12.070;2023-06-04T10:58:10;101225.38;;;29.16;16.89
77333;BME280;66408;51.326;12.070;2023-06-04T11:00:40;101224.44;;;29.34;15.87
77333;BME280;66408;51.326;12.070;2023-06-04T11:03:10;101224.13;;;29.21;15.85
77333;BME280;66408;51.326;12.070;2023-06-04T11:08:09;101228.31;;;28.88;16.15
77333;BME280;66408;51.326;12.070;2023-06-04T11:10:44;101217.09;;;28.88;16.88
77333;BME280;66408;51.326;12.070;2023-06-04T11:13:12;101223.91;;;28.90;16.18
77333;BME280;66408;51.326;12.070;2023-06-04T11:15:42;101224.91;;;29.25;16.28
77333;BME280;66408;51.326;12.070;2023-06-04T11:18:19;101216.91;;;29.27;15.62
77333;BME280;66408;51.326;12.070;2023-06-04T11:20:57;101214.66;;;29.67;15.21
77333;BME280;66408;51.326;12.070;2023-06-04T11:23:25;101202.03;;;30.30;15.39
77333;BME280;66408;51.326;12.070;2023-06-04T11:25:55;101214.66;;;30.49;15.34
77333;BME280;66408;51.326;12.070;2023-06-04T11:28:22;101219.84;;;30.54;14.51
77333;BME280;66408;51.326;12.070;2023-06-04T11:31:02;101213.88;;;30.11;15.07
77333;BME280;66408;51.326;12.070;2023-06-04T11:33:30;101212.16;;;29.76;15.58
77333;BME280;66408;51.326;12.070;2023-06-04T11:36:08;101217.66;;;29.31;14.92
77333;BME280;66408;51.326;12.070;2023-06-04T11:38:35;101211.34;;;29.75;15.45
77333;BME280;66408;51.326;12.070;2023-06-04T11:41:02;101202.53;;;30.21;14.93
77333;BME280;66408;51.326;12.070;2023-06-04T11:43:34;101198.09;;;30.24;13.89
77333;BME280;66408;51.326;12.070;2023-06-04T11:46:06;101199.72;;;30.21;15.07
77333;BME280;66408;51.326;12.070;2023-06-04T11:48:39;101202.72;;;30.41;14.83
77333;BME280;66408;51.326;12.070;2023-06-04T11:51:09;101195.34;;;30.17;14.48
77333;BME280;66408;51.326;12.070;2023-06-04T11:53:37;101199.78;;;29.07;15.68
77333;BME280;66408;51.326;12.070;2023-06-04T11:56:05;101201.31;;;29.22;16.43
77333;BME280;66408;51.326;12.070;2023-06-04T11:58:32;101214.56;;;29.11;15.13
77333;BME280;66408;51.326;12.070;2023-06-04T12:00:59;101200.63;;;29.04;15.10
77333;BME280;66408;51.326;12.070;2023-06-04T12:03:37;101205.91;;;28.91;15.76
77333;BME280;66408;51.326;12.070;2023-06-04T12:06:18;101189.94;;;29.47;14.62
77333;BME280;66408;51.326;12.070;2023-06-04T12:08:54;101196.50;;;29.19;14.99
77333;BME280;66408;51.326;12.070;2023-06-04T12:11:34;101194.81;;;29.36;15.44
77333;BME280;66408;51.326;12.070;2023-06-04T12:14:05;101192.78;;;29.44;14.77
77333;BME280;66408;51.326;12.070;2023-06-04T12:16:33;101202.13;;;29.19;15.18
77333;BME280;66408;51.326;12.070;2023-06-04T12:19:11;101192.31;;;28.83;14.54
77333;BME280;66408;51.326;12.070;2023-06-04T12:21:39;101189.03;;;29.02;15.73
77333;BME280;66408;51.326;12.070;2023-06-04T12:24:13;101192.31;;;28.86;14.66
77333;BME280;66408;51.326;12.070;2023-06-04T12:26:41;101189.13;;;28.81;14.38
77333;BME280;66408;51.326;12.070;2023-06-04T12:29:11;101191.13;;;28.84;15.03
77333;BME280;66408;51.326;12.070;2023-06-04T12:31:47;101189.06;;;28.95;15.65
77333;BME280;66408;51.326;12.070;2023-06-04T12:34:14;101191.34;;;29.14;15.90
77333;BME280;66408;51.326;12.070;2023-06-04T12:36:41;101179.69;;;29.23;15.30
77333;BME280;66408;51.326;12.070;2023-06-04T12:39:09;101184.09;;;29.20;15.90
77333;BME280;66408;51.326;12.070;2023-06-04T12:41:36;101178.22;;;29.04;15.65
77333;BME280;66408;51.326;12.070;2023-06-04T12:44:06;101187.59;;;28.58;14.75
77333;BME280;66408;51.326;12.070;2023-06-04T12:46:33;101187.69;;;28.41;15.81
77333;BME280;66408;51.326;12.070;2023-06-04T12:49:02;101185.72;;;28.23;16.08
77333;BME280;66408;51.326;12.070;2023-06-04T12:51:28;101182.91;;;28.20;15.47
77333;BME280;66408;51.326;12.070;2023-06-04T12:53:57;101189.63;;;28.51;16.64
77333;BME280;66408;51.326;12.070;2023-06-04T12:56:26;101177.63;;;28.54;15.31